Saint Bride's, Canada
Current Conditions -  °F | °C
As of 11:43 AM on Thursday 30 Oct 2014 (Local Time) from CYYT Reporting Station
Overcast Overcast  
Wind Chill: 61°   Ceiling: 800
Heat Index: 61°   Visibility: 12mi
Dew Point: 59°   Wind: 23mph
Humidity: 94%   Direction: 230°SW
Pressure: 29.78"   Gusts: 32mph
Location:  46.92°N, 54.18°W
Report Text: CYYT 301343Z 23020G28KT 12SM OVC008 16/15 A2978 RMK SF8 SLP086 DENSITY ALT 800FT
Loading
Personal Weather Stations






























Interactive Weather Map
Tropical Storm Tracking
New forecast layout! Learn more

10-Day Weather Forecast

Advertisements
Track Severe Weather on mobile